Yuanping, China
Current Conditions -  °F | °C
As of 8:30 PM on Friday 24 Oct 2014 (Local Time) from ZBYN Reporting Station
Haze Haze  
Wind Chill: 55°   Ceiling: Unl
Heat Index: 55°   Visibility: 1.8mi
Dew Point: 43°   Wind: 7mph
Humidity: 63%   Direction: 110°ESE
Pressure: 29.94"   Gusts: NA
Location:  38.73°N, 112.72°E
Report Text: ZBYN 241230Z 11003MPS 3000 HZ NSC 13/06 Q1014 NOSIG
Loading
Personal Weather Stations






























Interactive Weather Map
Tropical Storm Tracking
New forecast layout! Learn more

10-Day Weather Forecast

Advertisements
Track Severe Weather on mobile